Time;durP1;ratioP1;P1;durP2;ratioP2;P2;SDS_P1;SDS_P2;PMS_P1;PMS_P2;Temp;Humidity;BMP_temperature;BMP_pressure;BME280_temperature;BME280_humidity;BME280_pressure;Samples;Min_cycle;Max_cycle;Signal;HPM_P1;HPM_P2
2022/04/15 00:01:53;;;;;;;9.78;7.17;;;;;;;;;;727329;79;26273;-70
2022/04/15 00:02:57;;;;;;;8.98;7.60;;;;;;;;;;726755;81;26754;-70
2022/04/15 00:04:00;;;;;;;8.48;7.05;;;;;;;;;;726421;81;26788;-70
2022/04/15 00:05:29;;;;;;;10.45;7.90;;;;;;;;;;727255;81;26280;-72
2022/04/15 00:06:08;;;;;;;8.60;7.70;;;;;;;;;;725093;81;26738;-69
2022/04/15 00:07:14;;;;;;;8.05;7.30;;;;;;;;;;726754;81;26761;-70
2022/04/15 00:08:17;;;;;;;10.05;7.75;;;;;;;;;;726992;81;26281;-71
2022/04/15 00:11:53;;;;;;;10.58;7.30;;;;;;;;;;748324;79;26269;-71
2022/04/15 00:12:56;;;;;;;9.23;7.60;;;;;;;;;;734441;81;26665;-69
2022/04/15 00:14:00;;;;;;;8.20;7.40;;;;;;;;;;733554;80;26278;-70
2022/04/15 00:15:03;;;;;;;9.93;7.83;;;;;;;;;;747588;79;26270;-68
2022/04/15 00:16:07;;;;;;;10.48;8.18;;;;;;;;;;748208;79;26325;-69
2022/04/15 00:17:10;;;;;;;9.88;7.42;;;;;;;;;;748656;79;26254;-69
2022/04/15 00:18:14;;;;;;;9.70;7.85;;;;;;;;;;748910;79;26252;-69
2022/04/15 00:21:31;;;;;;;8.30;7.40;;;;;;;;;;748283;79;26298;-70
2022/04/15 00:22:37;;;;;;;9.18;7.53;;;;;;;;;;747715;79;24634;-69
2022/04/15 00:23:40;;;;;;;10.68;8.05;;;;;;;;;;747681;79;26273;-69
2022/04/15 00:24:48;;;;;;;9.00;7.87;;;;;;;;;;747693;79;26329;-68
2022/04/15 00:28:07;;;;;;;8.93;8.05;;;;;;;;;;747934;79;26320;-70
2022/04/15 00:32:51;;;;;;;11.10;8.60;;;;;;;;;;750821;79;26192;-69
2022/04/15 00:33:56;;;;;;;10.55;7.85;;;;;;;;;;750463;78;26228;-69
2022/04/15 00:35:00;;;;;;;11.43;8.43;;;;;;;;;;738772;79;26234;-69
2022/04/15 00:36:03;;;;;;;11.70;8.83;;;;;;;;;;764221;76;26357;-69
2022/04/15 00:37:08;;;;;;;12.78;8.80;;;;;;;;;;762546;78;26255;-69
2022/04/15 00:38:11;;;;;;;12.20;8.73;;;;;;;;;;762589;78;26717;-68
2022/04/15 00:41:11;;;;;;;9.50;8.20;;;;;;;;;;749496;79;26253;-69
2022/04/15 00:42:16;;;;;;;11.08;8.50;;;;;;;;;;747836;79;26252;-68
2022/04/15 00:43:20;;;;;;;9.63;8.25;;;;;;;;;;748109;79;26261;-77
2022/04/15 00:44:25;;;;;;;10.18;7.35;;;;;;;;;;747867;79;26339;-71
2022/04/15 00:45:27;;;;;;;8.63;7.72;;;;;;;;;;747486;79;26319;-69
2022/04/15 00:46:30;;;;;;;10.60;7.80;;;;;;;;;;747309;79;26256;-71
2022/04/15 00:47:39;;;;;;;7.87;6.60;;;;;;;;;;748121;79;26248;-69
2022/04/15 00:52:28;;;;;;;7.03;6.30;;;;;;;;;;762106;78;26196;-69
2022/04/15 00:53:32;;;;;;;10.03;6.70;;;;;;;;;;748523;79;26270;-69
2022/04/15 00:54:36;;;;;;;7.75;7.03;;;;;;;;;;748408;79;26270;-70
2022/04/15 00:55:42;;;;;;;7.45;6.45;;;;;;;;;;761506;78;26263;-69
2022/04/15 00:56:46;;;;;;;9.08;6.80;;;;;;;;;;781055;76;26208;-68
2022/04/15 00:57:55;;;;;;;7.70;6.80;;;;;;;;;;781084;76;26197;-68
2022/04/15 01:02:40;;;;;;;8.88;7.22;;;;;;;;;;790666;75;26131;-70
2022/04/15 01:03:44;;;;;;;14.65;6.50;;;;;;;;;;790282;74;26274;-68
2022/04/15 01:04:50;;;;;;;9.80;7.05;;;;;;;;;;789987;74;26231;-68
2022/04/15 01:05:55;;;;;;;10.38;7.03;;;;;;;;;;790136;74;26314;-69
2022/04/15 01:07:00;;;;;;;12.58;7.37;;;;;;;;;;790265;75;26290;-70
2022/04/15 01:08:08;;;;;;;8.83;6.42;;;;;;;;;;790232;75;26690;-71
2022/04/15 01:12:39;;;;;;;7.08;6.28;;;;;;;;;;777089;76;26178;-69
2022/04/15 01:13:42;;;;;;;10.05;5.80;;;;;;;;;;777063;76;26710;-71
2022/04/15 01:14:48;;;;;;;10.23;6.50;;;;;;;;;;776806;76;26251;-69
2022/04/15 01:15:52;;;;;;;9.30;6.12;;;;;;;;;;776833;76;26241;-68
2022/04/15 01:16:55;;;;;;;6.78;6.08;;;;;;;;;;777088;76;26678;-69
2022/04/15 01:18:00;;;;;;;6.47;5.83;;;;;;;;;;777605;76;26245;-69
2022/04/15 01:21:27;;;;;;;5.78;5.25;;;;;;;;;;795043;74;24618;-69
2022/04/15 01:22:33;;;;;;;6.75;6.15;;;;;;;;;;794763;74;26633;-69
2022/04/15 01:23:38;;;;;;;8.35;6.33;;;;;;;;;;794756;74;26204;-69
2022/04/15 01:26:41;;;;;;;7.15;6.25;;;;;;;;;;774933;76;26675;-69
2022/04/15 01:27:45;;;;;;;9.83;7.05;;;;;;;;;;774838;76;26246;-69
2022/04/15 01:31:07;;;;;;;7.25;6.25;;;;;;;;;;775102;76;26228;-69
2022/04/15 01:32:10;;;;;;;10.43;7.10;;;;;;;;;;778914;76;26246;-69
2022/04/15 01:33:15;;;;;;;7.37;5.62;;;;;;;;;;778757;76;26248;-69
2022/04/15 01:34:20;;;;;;;9.18;5.95;;;;;;;;;;778585;76;26686;-69
2022/04/15 01:35:23;;;;;;;7.47;6.00;;;;;;;;;;778705;76;26260;-69
2022/04/15 01:36:26;;;;;;;7.17;5.92;;;;;;;;;;778678;76;26729;-69
2022/04/15 01:37:31;;;;;;;8.43;6.15;;;;;;;;;;778823;76;26716;-69
2022/04/15 01:42:21;;;;;;;13.62;6.08;;;;;;;;;;747951;79;26316;-69
2022/04/15 01:43:25;;;;;;;7.53;6.50;;;;;;;;;;747865;79;26352;-69
2022/04/15 01:44:30;;;;;;;6.03;5.42;;;;;;;;;;747691;79;26721;-69
2022/04/15 01:45:33;;;;;;;6.28;5.67;;;;;;;;;;747724;79;26735;-69
2022/04/15 01:46:37;;;;;;;9.45;5.72;;;;;;;;;;742626;80;26750;-70
2022/04/15 01:47:40;;;;;;;9.38;5.85;;;;;;;;;;743813;80;26329;-70
2022/04/15 01:52:36;;;;;;;6.08;5.47;;;;;;;;;;738691;80;26685;-70
2022/04/15 01:53:40;;;;;;;6.17;5.58;;;;;;;;;;738630;79;26359;-69
2022/04/15 01:54:44;;;;;;;6.15;5.33;;;;;;;;;;738627;80;26261;-69
2022/04/15 01:55:51;;;;;;;7.00;5.72;;;;;;;;;;738702;80;26321;-69
2022/04/15 01:56:56;;;;;;;6.72;6.03;;;;;;;;;;738633;80;26326;-69
2022/04/15 02:00:07;;;;;;;6.70;6.00;;;;;;;;;;738997;80;26226;-69
2022/04/15 02:01:10;;;;;;;7.97;5.90;;;;;;;;;;750539;79;26774;-68
2022/04/15 02:02:13;;;;;;;6.25;5.75;;;;;;;;;;736244;80;26727;-69
2022/04/15 02:03:17;;;;;;;6.45;5.95;;;;;;;;;;749937;79;26266;-69
2022/04/15 02:04:21;;;;;;;7.12;6.42;;;;;;;;;;736260;80;26267;-70
2022/04/15 02:05:24;;;;;;;7.87;6.08;;;;;;;;;;724421;82;26273;-70
2022/04/15 02:06:28;;;;;;;7.33;6.62;;;;;;;;;;749264;77;26344;-69
2022/04/15 02:07:31;;;;;;;6.70;5.75;;;;;;;;;;736235;80;26735;-69
2022/04/15 02:10:41;;;;;;;8.50;6.72;;;;;;;11.76;82.36;75109.17;736660;80;26208;-69
2022/04/15 02:11:45;;;;;;;9.45;6.90;;;;;;;;;;729767;81;26276;-69
2022/04/15 02:12:50;;;;;;;6.80;6.00;;;;;;;;;;751315;79;26271;-69
2022/04/15 02:13:53;;;;;;;6.95;6.20;;;;;;;;;;729865;81;26792;-68
2022/04/15 02:14:59;;;;;;;5.80;5.30;;;;;;;;;;731946;81;26284;-68
2022/04/15 02:16:02;;;;;;;8.10;6.30;;;;;;;;;;736053;80;26286;-69
2022/04/15 02:17:06;;;;;;;8.08;5.92;;;;;;;;;;736176;80;26793;-69
2022/04/15 02:21:39;;;;;;;6.60;5.80;;;;;;;;;;756898;78;26192;-69
2022/04/15 02:22:42;;;;;;;6.55;5.90;;;;;;;;;;763016;77;26273;-69
2022/04/15 02:23:46;;;;;;;6.67;6.08;;;;;;;;;;764446;77;26326;-69
2022/04/15 02:24:49;;;;;;;9.08;6.03;;;;;;;;;;764367;77;26731;-69
2022/04/15 02:25:52;;;;;;;8.85;6.20;;;;;;;;;;764397;77;26326;-69
2022/04/15 02:26:56;;;;;;;6.47;5.72;;;;;;;;;;764419;77;26312;-68
2022/04/15 02:30:15;;;;;;;7.17;6.28;;;;;;;;;;764756;77;26202;-69
2022/04/15 02:31:18;;;;;;;7.12;6.42;;;;;;;;;;749445;79;26265;-69
2022/04/15 02:32:23;;;;;;;8.93;6.08;;;;;;;;;;749641;79;26715;-71
2022/04/15 02:33:26;;;;;;;6.92;6.33;;;;;;;;;;749996;79;26741;-69
2022/04/15 02:34:29;;;;;;;7.10;6.12;;;;;;;;;;750130;79;26328;-68
2022/04/15 02:35:33;;;;;;;7.75;6.58;;;;;;;;;;749927;79;26262;-68
2022/04/15 02:36:35;;;;;;;7.42;6.33;;;;;;;;;;749771;79;26265;-68
2022/04/15 02:37:38;;;;;;;7.08;6.25;;;;;;;;;;749737;79;26260;-69
2022/04/15 02:42:22;;;;;;;6.90;6.20;;;;;;;;;;788743;75;26180;-69
2022/04/15 02:43:31;;;;;;;7.25;6.15;;;;;;;;;;788993;75;26335;-69
2022/04/15 02:44:33;;;;;;;9.30;5.90;;;;;;;;;;789252;75;26258;-71
2022/04/15 02:45:36;;;;;;;5.72;5.22;;;;;;;;;;789512;75;26246;-68
2022/04/15 02:46:39;;;;;;;8.00;6.30;;;;;;;;;;789423;75;26234;-69
2022/04/15 02:47:43;;;;;;;8.28;6.25;;;;;;;;;;789456;75;26237;-69
2022/04/15 02:50:45;;;;;;;7.08;5.60;;;;;;;;;;754950;78;26247;-69
2022/04/15 02:51:49;;;;;;;7.47;6.25;;;;;;;;;;754429;78;26302;-69
2022/04/15 02:52:52;;;;;;;7.30;5.92;;;;;;;;;;753771;78;26713;-70
2022/04/15 02:53:55;;;;;;;7.65;6.08;;;;;;;;;;753803;78;26252;-68
2022/04/15 02:55:02;;;;;;;6.20;5.60;;;;;;;;;;754124;78;26263;-70
2022/04/15 02:56:06;;;;;;;6.12;5.60;;;;;;;;;;753912;78;26250;-68
2022/04/15 02:57:12;;;;;;;7.60;6.50;;;;;;;;;;753663;78;26247;-68
2022/04/15 03:00:43;;;;;;;6.40;5.80;;;;;;;;;;753780;78;26638;-68
2022/04/15 03:01:48;;;;;;;7.85;5.90;;;;;;;;;;745888;79;26262;-68
2022/04/15 03:02:52;;;;;;;9.38;6.12;;;;;;;;;;746024;79;26263;-68
2022/04/15 03:03:58;;;;;;;6.85;6.15;;;;;;;;;;745991;79;26262;-68
2022/04/15 03:05:03;;;;;;;7.67;6.25;;;;;;;;;;766138;77;26241;-73
2022/04/15 03:06:07;;;;;;;7.03;6.40;;;;;;;;;;766121;77;26233;-69
2022/04/15 03:07:14;;;;;;;6.80;6.20;;;;;;;;;;761967;77;26209;-71
2022/04/15 03:12:04;;;;;;;7.28;6.50;;;;;;;;;;778539;76;26248;-68
2022/04/15 03:13:15;;;;;;;7.75;6.95;;;;;;;;;;778481;76;26706;-69
2022/04/15 03:14:18;;;;;;;8.70;6.30;;;;;;;;;;778572;76;26679;-69
2022/04/15 03:15:21;;;;;;;8.45;5.83;;;;;;;;;;778537;76;26232;-68
2022/04/15 03:16:24;;;;;;;7.37;6.47;;;;;;;;;;778532;76;26249;-68
2022/04/15 03:17:27;;;;;;;9.05;7.28;;;;;;;;;;778494;76;26241;-69
2022/04/15 03:20:28;;;;;;;7.62;6.87;;;;;;;;;;767563;77;26189;-68
2022/04/15 03:21:34;;;;;;;6.83;6.17;;;;;;;;;;767483;77;26783;-69
2022/04/15 03:24:52;;;;;;;10.38;6.55;;;;;;;;;;748892;79;26228;-69
2022/04/15 03:25:55;;;;;;;7.33;6.62;;;;;;;;;;737304;80;26741;-68
2022/04/15 03:27:03;;;;;;;7.87;6.50;;;;;;;;;;737304;80;26277;-68
2022/04/15 03:31:59;;;;;;;10.25;6.42;;;;;;;;;;752026;79;26732;-71
2022/04/15 03:33:02;;;;;;;11.75;6.40;;;;;;;;;;751479;79;26789;-69
2022/04/15 03:34:06;;;;;;;10.20;7.05;;;;;;;;;;751170;79;26262;-69
2022/04/15 03:35:09;;;;;;;8.93;6.90;;;;;;;;;;751753;79;26688;-69
2022/04/15 03:36:12;;;;;;;12.65;7.92;;;;;;;;;;752174;79;26262;-71
2022/04/15 03:37:15;;;;;;;8.53;7.28;;;;;;;;;;751197;79;26313;-68
2022/04/15 03:42:04;;;;;;;8.68;7.30;;;;;;;;;;781346;76;26231;-68
2022/04/15 03:43:09;;;;;;;11.18;7.17;;;;;;;;;;773478;76;26250;-68
2022/04/15 03:44:30;;;;;;;9.88;7.40;;;;;;;;;;793614;75;26227;-69
2022/04/15 03:45:33;;;;;;;13.15;8.05;;;;;;;;;;793677;75;26215;-70
2022/04/15 03:46:38;;;;;;;10.85;7.50;;;;;;;;;;793643;75;26742;-70
2022/04/15 03:49:45;;;;;;;12.73;7.92;;;;;;;;;;794009;75;26179;-70
2022/04/15 03:50:53;;;;;;;12.60;7.62;;;;;;;;;;752035;79;26772;-68
2022/04/15 03:51:57;;;;;;;10.65;7.70;;;;;;;;;;752102;78;26264;-68
2022/04/15 03:53:01;;;;;;;14.07;8.03;;;;;;;;;;752072;78;26314;-69
2022/04/15 03:54:04;;;;;;;10.48;7.15;;;;;;;;;;751996;79;26404;-69
2022/04/15 03:55:12;;;;;;;11.83;8.40;;;;;;;;;;752072;79;26314;-70
2022/04/15 03:56:15;;;;;;;10.95;8.70;;;;;;;;;;752186;79;26249;-71
2022/04/15 04:01:07;;;;;;;15.88;10.68;;;;;;;;;;752481;79;26167;-69
2022/04/15 04:02:57;;;;;;;18.12;11.55;;;;;;;;;;750280;79;26336;-69
2022/04/15 04:04:27;;;;;;;13.20;10.08;;;;;;;;;;749003;79;26244;-69
2022/04/15 04:05:57;;;;;;;10.85;8.03;;;;;;;;;;751325;79;26773;-68
2022/04/15 04:14:57;;;;;;;10.58;7.72;;;;;;;;;;753306;79;26200;-69
2022/04/15 04:16:01;;;;;;;9.35;7.65;;;;;;;;;;749186;79;24363;-68
2022/04/15 04:17:06;;;;;;;13.95;8.58;;;;;;;;;;748925;79;26351;-70
2022/04/15 04:21:52;;;;;;;9.40;7.40;;;;;;;;;;749982;79;26156;-69
2022/04/15 04:23:01;;;;;;;10.05;8.15;;;;;;;;;;749996;79;26324;-70
2022/04/15 04:24:07;;;;;;;9.93;7.40;;;;;;;;;;738821;75;26702;-68
2022/04/15 04:25:10;;;;;;;14.35;8.40;;;;;;;;;;751691;79;26286;-68
2022/04/15 04:26:13;;;;;;;9.10;7.90;;;;;;;;;;751667;79;26263;-69
2022/04/15 04:29:35;;;;;;;14.30;8.00;;;;;;;;;;752085;79;26262;-71
2022/04/15 04:30:39;;;;;;;10.28;8.63;;;;;;;;;;742693;80;26736;-67
2022/04/15 04:31:43;;;;;;;13.60;8.60;;;;;;;;;;742645;80;26319;-67
2022/04/15 04:32:52;;;;;;;15.32;8.50;;;;;;;;;;742580;80;26298;-69
2022/04/15 04:33:52;;;;;;;15.90;8.23;;;;;;;;;;741987;80;26315;-68
2022/04/15 04:34:54;;;;;;;11.55;8.75;;;;;;;;;;742552;80;26736;-69
2022/04/15 04:36:00;;;;;;;14.47;9.88;;;;;;;;;;742920;80;26294;-69
2022/04/15 04:40:53;;;;;;;14.83;9.03;;;;;;;;;;742223;80;26714;-68
2022/04/15 04:41:58;;;;;;;14.47;8.90;;;;;;;;;;742222;80;26828;-66
2022/04/15 04:43:06;;;;;;;13.18;8.80;;;;;;;;;;751807;77;26250;-68
2022/04/15 04:44:15;;;;;;;11.75;9.20;;;;;;;;;;765387;77;26306;-69
2022/04/15 04:45:20;;;;;;;11.78;9.53;;;;;;;;;;765265;77;26263;-69
2022/04/15 04:46:23;;;;;;;15.68;9.20;;;;;;;;;;765237;77;26324;-69
2022/04/15 04:51:08;;;;;;;14.95;10.25;;;;;;;;;;779848;76;26247;-67
2022/04/15 04:52:14;;;;;;;18.20;10.08;;;;;;;;;;779964;76;26240;-67
2022/04/15 04:53:19;;;;;;;18.10;10.45;;;;;;;;;;779868;76;26334;-67
2022/04/15 04:54:25;;;;;;;14.07;9.70;;;;;;;;;;779909;76;26240;-68
2022/04/15 04:55:30;;;;;;;17.37;11.10;;;;;;;;;;783563;75;26301;-68
2022/04/15 04:56:35;;;;;;;17.52;10.35;;;;;;;;;;783583;75;26719;-69
2022/04/15 05:04:29;;;;;;;19.95;11.12;;;;;;;;;;789281;75;26178;-69
2022/04/15 05:05:34;;;;;;;18.35;10.70;;;;;;;;;;789248;75;26238;-70
2022/04/15 05:06:38;;;;;;;14.95;11.25;;;;;;;;;;789356;75;26642;-69
2022/04/15 05:09:41;;;;;;;17.27;10.85;;;;;;;;;;793063;75;26296;-69
2022/04/15 05:10:45;;;;;;;16.45;11.60;;;;;;;;;;792934;75;26285;-69
2022/04/15 05:11:51;;;;;;;17.42;11.75;;;;;;;;;;792912;75;26246;-70
2022/04/15 05:12:54;;;;;;;17.20;11.68;;;;;;;;;;792866;75;26289;-70
2022/04/15 05:13:57;;;;;;;21.77;11.97;;;;;;;;;;792826;75;26221;-68
2022/04/15 05:15:02;;;;;;;16.73;11.93;;;;;;;;;;792849;75;26230;-70
2022/04/15 05:16:05;;;;;;;15.05;12.37;;;;;;;;;;792774;75;26297;-69
2022/04/15 05:20:50;;;;;;;16.70;11.57;;;;;;;;;;765670;77;26251;-67
2022/04/15 05:21:55;;;;;;;18.50;12.55;;;;;;;;;;765679;77;26732;-67
2022/04/15 05:22:59;;;;;;;16.37;13.35;;;;;;;;;;766205;77;26294;-69
2022/04/15 05:24:07;;;;;;;18.00;13.08;;;;;;;;;;765340;77;26256;-67
2022/04/15 05:25:11;;;;;;;14.33;12.73;;;;;;;;;;765278;77;26259;-70
2022/04/15 05:26:20;;;;;;;19.73;13.00;;;;;;;;;;765380;77;26303;-68
2022/04/15 05:27:23;;;;;;;18.77;13.43;;;;;;;;;;765430;77;26721;-68
2022/04/15 05:28:27;;;;;;;18.70;12.93;;;;;;;;;;766080;77;26804;-70
2022/04/15 05:29:31;;;;;;;13.18;11.88;;;;;;;;;;765968;77;26241;-72
2022/04/15 05:30:34;;;;;;;18.02;13.28;;;;;;;;;;765446;77;26249;-68
2022/04/15 05:31:39;;;;;;;17.62;14.25;;;;;;;;;;765500;77;26402;-68
2022/04/15 05:32:44;;;;;;;23.85;15.30;;;;;;;;;;765342;77;26323;-69
2022/04/15 05:33:51;;;;;;;24.63;21.15;;;;;;;;;;765291;77;26279;-68
2022/04/15 05:34:54;;;;;;;26.90;21.68;;;;;;;;;;765496;77;26244;-69
2022/04/15 05:36:02;;;;;;;22.27;18.52;;;;;;;;;;767233;77;26767;-68
2022/04/15 05:38:45;;;;;;;20.05;14.30;;;;;;;;;;764380;77;26252;-68
2022/04/15 05:39:51;;;;;;;19.98;14.58;;;;;;;;;;764394;77;26700;-70
2022/04/15 05:40:57;;;;;;;20.00;15.55;;;;;;;;;;764349;77;26253;-68
2022/04/15 05:41:59;;;;;;;18.85;15.03;;;;;;;;;;764392;77;26253;-68
2022/04/15 05:43:02;;;;;;;17.15;14.43;;;;;;;;;;764487;77;24802;-68
2022/04/15 05:44:07;;;;;;;23.80;16.35;;;;;;;;;;764237;77;26726;-68
2022/04/15 05:47:09;;;;;;;18.67;16.80;;;;;;;;;;790446;75;26265;-68
2022/04/15 05:48:14;;;;;;;19.65;15.98;;;;;;;;;;791653;75;26289;-68
2022/04/15 05:49:20;;;;;;;20.32;16.25;;;;;;;;;;791655;75;26290;-69
2022/04/15 05:50:25;;;;;;;19.17;17.05;;;;;;;;;;791703;75;26311;-70
2022/04/15 05:51:29;;;;;;;11.28;9.50;;;;;;;;;;791668;75;26317;-69
2022/04/15 05:52:32;;;;;;;9.25;8.30;;;;;;;;;;791752;75;26219;-71
2022/04/15 05:53:35;;;;;;;13.15;10.10;;;;;;;;;;791717;75;26238;-67
2022/04/15 05:54:40;;;;;;;12.63;10.65;;;;;;;;;;791762;75;26235;-70
2022/04/15 05:55:43;;;;;;;21.57;11.18;;;;;;;;;;791790;75;26223;-68
2022/04/15 05:56:47;;;;;;;13.38;10.50;;;;;;;;;;791763;75;26231;-70
2022/04/15 05:57:50;;;;;;;13.45;11.73;;;;;;;;;;791790;75;26278;-68
2022/04/15 05:58:53;;;;;;;18.20;12.60;;;;;;;;;;791761;75;26292;-67
2022/04/15 06:00:01;;;;;;;21.42;14.63;;;;;;;;;;791770;75;26232;-68
2022/04/15 06:01:09;;;;;;;24.82;18.12;;;;;;;;;;791560;75;26293;-68
2022/04/15 06:02:12;;;;;;;23.05;17.27;;;;;;;;;;791811;75;26685;-68
2022/04/15 06:03:15;;;;;;;18.70;16.70;;;;;;;;;;788994;75;28552;-68
2022/04/15 06:04:20;;;;;;;22.67;17.10;;;;;;;;;;791843;75;26219;-69
2022/04/15 06:05:28;;;;;;;18.02;15.70;;;;;;;;;;791794;75;26279;-68
2022/04/15 06:06:32;;;;;;;16.20;13.10;;;;;;;;;;790274;74;26340;-68
2022/04/15 06:07:37;;;;;;;21.50;16.15;;;;;;;;;;780318;76;26233;-67
2022/04/15 06:08:44;;;;;;;23.17;18.87;;;;;;;;;;781621;75;26292;-67
2022/04/15 06:09:48;;;;;;;22.70;18.40;;;;;;;;;;791835;75;26776;-66
2022/04/15 06:10:51;;;;;;;24.87;18.40;;;;;;;;;;791868;75;26392;-68
2022/04/15 06:11:56;;;;;;;23.80;19.00;;;;;;;;;;791858;75;26512;-67
2022/04/15 06:13:04;;;;;;;24.93;18.17;;;;;;;;;;791769;75;26485;-72
2022/04/15 06:14:06;;;;;;;24.93;18.93;;;;;;;;;;791763;74;26426;-71
2022/04/15 06:15:11;;;;;;;21.73;17.33;;;;;;;;;;791854;75;26751;-72
2022/04/15 06:16:17;;;;;;;27.23;18.13;;;;;;;;;;791044;74;26466;-72
2022/04/15 06:19:38;;;;;;;21.50;17.57;;;;;;;;;;758218;78;26535;-72
2022/04/15 06:20:46;;;;;;;24.30;15.80;;;;;;;;;;758247;78;26498;-72
2022/04/15 06:21:53;;;;;;;24.80;18.03;;;;;;;;;;777578;76;26942;-71
2022/04/15 06:22:56;;;;;;;19.33;17.23;;;;;;;;;;777626;76;26308;-75
2022/04/15 06:24:01;;;;;;;22.83;18.80;;;;;;;;;;777580;76;26481;-73
2022/04/15 06:25:04;;;;;;;22.43;14.70;;;;;;;;;;777577;76;26487;-72
2022/04/15 06:26:09;;;;;;;16.70;14.13;;;;;;;;;;777532;76;26426;-73
2022/04/15 06:29:11;;;;;;;19.73;15.70;;;;;;;;;;777151;76;26488;-72
2022/04/15 06:30:19;;;;;;;21.83;14.97;;;;;;;;;;778165;76;26532;-73
2022/04/15 06:31:22;;;;;;;26.37;15.70;;;;;;;;;;778391;76;26471;-72
2022/04/15 06:32:25;;;;;;;23.57;15.97;;;;;;;;;;778324;76;26921;-72
2022/04/15 06:33:29;;;;;;;19.97;16.63;;;;;;;;;;778012;76;26691;-74
2022/04/15 06:34:33;;;;;;;23.13;17.33;;;;;;;;;;777201;76;26863;-78
2022/04/15 06:35:39;;;;;;;24.73;17.33;;;;;;;;;;777118;76;26422;-73
2022/04/15 06:38:57;;;;;;;31.67;28.07;;;;;;;;;;777250;76;26374;-72
2022/04/15 06:40:01;;;;;;;32.47;28.83;;;;;;;;;;777617;76;26495;-75
2022/04/15 06:41:06;;;;;;;26.57;23.10;;;;;;;;;;777705;76;26442;-74
2022/04/15 06:42:09;;;;;;;23.70;20.53;;;;;;;;;;777822;76;26430;-74
2022/04/15 06:43:16;;;;;;;24.70;19.50;;;;;;;;;;776809;76;26921;-71
2022/04/15 06:44:19;;;;;;;24.00;18.40;;;;;;;;;;777852;76;26287;-68
2022/04/15 06:45:22;;;;;;;22.17;19.63;;;;;;;;;;777927;76;26490;-73
2022/04/15 06:46:24;;;;;;;23.27;18.90;;;;;;;;;;777995;76;26471;-70
2022/04/15 06:49:27;;;;;;;21.13;18.70;;;;;;;;;;711283;82;26606;-68
2022/04/15 06:50:31;;;;;;;29.10;18.43;;;;;;;;;;711034;83;26431;-70
2022/04/15 06:51:36;;;;;;;24.30;19.20;;;;;;;;;;710910;83;26557;-70
2022/04/15 06:52:40;;;;;;;21.43;18.47;;;;;;;;;;710992;83;26564;-70
2022/04/15 06:53:43;;;;;;;23.30;19.17;;;;;;;;;;710976;83;26611;-68
2022/04/15 06:54:46;;;;;;;22.07;17.23;;;;;;;;;;711067;83;26420;-69
2022/04/15 06:55:50;;;;;;;25.00;17.50;;;;;;;;;;711041;83;26609;-71
2022/04/15 06:58:51;;;;;;;22.70;17.73;;;;;;;;;;726413;81;26347;-69
2022/04/15 06:59:54;;;;;;;24.60;18.40;;;;;;;;;;757184;78;27003;-70
2022/04/15 07:00:57;;;;;;;17.93;16.17;;;;;;;;;;757208;78;26518;-71
2022/04/15 07:02:02;;;;;;;21.93;17.57;;;;;;;;;;757210;78;26657;-70
2022/04/15 07:03:06;;;;;;;22.60;17.20;;;;;;;;;;757138;78;26474;-71
2022/04/15 07:04:10;;;;;;;17.53;15.73;;;;;;;;;;757312;78;26352;-69
2022/04/15 07:05:15;;;;;;;23.33;17.60;;;;;;;;;;757259;78;26454;-72
2022/04/15 07:06:19;;;;;;;18.60;16.63;;;;;;;;;;765022;75;26557;-70
2022/04/15 07:09:19;;;;;;;16.40;14.70;;;;;;;;;;773852;77;26264;-73
2022/04/15 07:10:23;;;;;;;16.27;14.57;;;;;;;;;;773545;77;26442;-73
2022/04/15 07:11:26;;;;;;;16.33;14.70;;;;;;;;;;768551;77;26432;-74
2022/04/15 07:12:29;;;;;;;17.97;15.90;;;;;;;;;;773435;77;26834;-71
2022/04/15 07:13:32;;;;;;;16.13;14.53;;;;;;;;;;773136;77;26859;-72
2022/04/15 07:14:36;;;;;;;16.97;15.13;;;;;;;;;;772915;77;26493;-72
2022/04/15 07:15:38;;;;;;;16.23;14.60;;;;;;;;;;772863;77;26321;-72
2022/04/15 07:16:41;;;;;;;17.23;15.53;;;;;;;;;;772766;77;26387;-71
2022/04/15 07:17:44;;;;;;;18.97;14.90;;;;;;;;;;772824;77;26493;-71
2022/04/15 07:24:36;;;;;;;20.93;14.10;;;;;;;;;;786440;75;26350;-71
2022/04/15 07:25:39;;;;;;;16.40;13.70;;;;;;;;;;786582;75;26493;-72
2022/04/15 07:26:44;;;;;;;18.00;14.97;;;;;;;;;;786588;75;26563;-72
2022/04/15 07:27:47;;;;;;;17.07;15.30;;;;;;;;;;786592;75;26551;-72
2022/04/15 07:33:15;;;;;;;20.13;18.00;;;;;;;;;;772874;77;26450;-71
2022/04/15 07:34:17;;;;;;;22.30;18.00;;;;;;;;;;772822;77;26575;-70
2022/04/15 07:35:20;;;;;;;16.87;15.17;;;;;;;;;;772853;77;26627;-71
2022/04/15 07:37:40;;;;;;;20.53;14.87;;;;;;;;;;772846;76;26979;-72
2022/04/15 07:42:28;;;;;;;16.27;14.57;;;;;;;;;;773077;77;26630;-71
2022/04/15 07:45:13;;;;;;;21.10;15.30;;;;;;;;;;784694;75;27099;-73
2022/04/15 07:46:16;;;;;;;15.67;14.07;;;;;;;;;;786456;75;27050;-71
2022/04/15 07:47:19;;;;;;;18.00;14.20;;;;;;;;;;786472;75;26709;-71
2022/04/15 07:51:52;;;;;;;14.73;13.20;;;;;;;;;;772857;77;26640;-70
2022/04/15 07:52:57;;;;;;;17.30;13.53;;;;;;;;;;772801;77;26718;-72
2022/04/15 07:54:01;;;;;;;13.60;12.20;;;;;;;;;;772804;77;26791;-71
2022/04/15 07:55:05;;;;;;;15.70;14.07;;;;;;;28.00;100.00;123554.15;772761;77;27172;-71
2022/04/15 07:56:09;;;;;;;14.20;12.50;;;;;;;;;;773757;77;26791;-72
2022/04/15 07:57:13;;;;;;;13.73;12.33;;;;;;;;;;773639;77;27059;-71
2022/04/15 08:00:01;;;;;;;13.23;12.03;;;;;;;;;;772956;77;26822;-70
2022/04/15 08:01:04;;;;;;;17.43;11.77;;;;;;;;;;773318;77;26770;-72
2022/04/15 08:02:13;;;;;;;12.23;11.03;;;;;;;;;;773427;77;26785;-71
2022/04/15 08:03:20;;;;;;;13.33;11.10;;;;;;;;;;773283;76;26942;-71
2022/04/15 08:04:22;;;;;;;13.10;11.20;;;;;;;;;;772704;77;26782;-71
2022/04/15 08:05:29;;;;;;;13.00;11.73;;;;;;;;;;772681;77;26779;-71
2022/04/15 08:13:41;;;;;;;13.50;12.30;;;;;;;;;;759896;78;26726;-71
2022/04/15 08:14:45;;;;;;;12.97;11.67;;;;;;;;;;759706;78;26784;-71
2022/04/15 08:15:54;;;;;;;13.77;12.00;;;;;;;;;;759468;78;26781;-71
2022/04/15 08:16:59;;;;;;;12.77;10.93;;;;;;;;;;759292;77;26712;-71
2022/04/15 08:21:33;;;;;;;13.27;12.00;;;;;;;;;;773362;76;26642;-72
2022/04/15 08:22:37;;;;;;;11.80;10.70;;;;;;;;;;773581;76;26722;-71
2022/04/15 08:23:40;;;;;;;13.20;11.83;;;;;;;;;;773514;76;26849;-71
2022/04/15 08:24:45;;;;;;;13.30;12.00;;;;;;;;;;773485;76;26722;-74
2022/04/15 08:25:48;;;;;;;13.07;11.83;;;;;;;;;;773922;76;27285;-70
2022/04/15 08:26:56;;;;;;;14.07;12.67;;;;;;;;;;772363;76;27160;-71
2022/04/15 08:31:40;;;;;;;13.80;12.10;;;;;;;;;;740205;80;26668;-71
2022/04/15 08:32:45;;;;;;;12.70;11.47;;;;;;;;;;740125;80;26713;-71
2022/04/15 08:33:48;;;;;;;13.63;12.23;;;;;;;;;;737231;80;26748;-71
2022/04/15 08:34:52;;;;;;;13.60;12.30;;;;;;;;;;739988;80;26861;-71
2022/04/15 08:35:56;;;;;;;13.70;12.40;;;;;;;;;;740147;80;26880;-72
2022/04/15 08:36:59;;;;;;;12.47;11.40;;;;;;;;;;740114;80;26818;-72
2022/04/15 08:41:43;;;;;;;15.70;12.57;;;;;;;;;;749543;79;27147;-71
2022/04/15 08:42:46;;;;;;;16.00;12.80;;;;;;;;;;760384;78;27446;-70
2022/04/15 08:43:50;;;;;;;13.30;12.03;;;;;;;;;;760335;78;26979;-71
2022/04/15 08:44:56;;;;;;;13.53;11.40;;;;;;;;;;760115;78;26973;-71
2022/04/15 08:46:00;;;;;;;12.03;10.83;;;;;;;;;;736128;80;27063;-71
2022/04/15 08:47:03;;;;;;;12.83;11.40;;;;;;;;;;740361;80;27533;-71
2022/04/15 08:57:00;;;;;;;15.43;12.63;;;;;;;;;;736325;80;26940;-75
2022/04/15 09:01:18;;;;;;;13.23;11.87;;;;;;;;;;747836;79;26826;-70
2022/04/15 09:02:35;;;;;;;12.90;11.57;;;;;;;;;;777957;76;26818;-71
2022/04/15 09:03:41;;;;;;;15.27;12.30;;;;;;;;;;777475;76;26689;-71
2022/04/15 09:04:46;;;;;;;13.63;12.20;;;;;;;;;;778464;76;27086;-71
2022/04/15 09:05:53;;;;;;;14.53;13.07;;;;;;;;;;778415;76;26776;-70
2022/04/15 09:07:03;;;;;;;13.50;12.20;;;;;;;;;;778682;76;26638;-73
2022/04/15 09:10:40;;;;;;;14.53;12.37;;;;;;;;;;747479;79;26655;-71
2022/04/15 09:11:45;;;;;;;13.10;11.90;;;;;;;;;;746930;79;26698;-72
2022/04/15 09:12:49;;;;;;;12.80;11.60;;;;;;;;;;746759;78;26759;-73
2022/04/15 09:13:52;;;;;;;13.07;11.87;;;;;;;;;;746388;79;26772;-70
2022/04/15 09:16:41;;;;;;;18.47;16.57;;;;;;;;;;769386;77;26729;-70
2022/04/15 09:19:46;;;;;;;15.53;13.90;;;;;;;;;;775408;75;26622;-72
2022/04/15 09:20:50;;;;;;;18.23;14.10;;;;;;;;;;769603;77;27119;-71
2022/04/15 09:21:58;;;;;;;20.13;12.57;;;;;;;;;;769607;77;27177;-72
2022/04/15 09:23:10;;;;;;;20.30;12.97;;;;;;;27.90;78.85;166029.31;769631;77;27422;-71
2022/04/15 09:24:15;;;;;;;12.97;11.33;;;;;;;;;;762432;78;26779;-70
2022/04/15 09:25:19;;;;;;;12.40;11.23;;;;;;;;;;763113;78;27422;-70
2022/04/15 09:26:23;;;;;;;12.90;10.90;;;;;;;;;;763017;78;26796;-70
2022/04/15 09:51:03;;;;;;;9.13;8.23;;;;;;;;;;761036;78;26944;-72
2022/04/15 09:52:07;;;;;;;10.43;8.17;;;;;;;;;;764117;78;26978;-70
2022/04/15 09:53:20;;;;;;;9.00;7.90;;;;;;;;;;781608;75;26917;-71
2022/04/15 09:54:26;;;;;;;8.60;7.80;;;;;;;;;;781347;76;26983;-71
2022/04/15 09:55:31;;;;;;;9.27;8.57;;;;;;;;;;781308;76;26906;-73
2022/04/15 09:56:35;;;;;;;8.43;7.60;;;;;;;;;;781387;76;26898;-73